MSC Mandraki — SZUH — position and weather

sailwx.info

Track history (hours):
 
Tides and Currents Weather Stations Pressure Air Temp Water Temp Dewpoint Dewpoint Depression Visibility Wind Speed Wind Dir Waves Ship Positions

MSC Mandraki

Last reported at 2015-Jan-05 21:22 UTC. Time now 2015-Jan-25 22:26 UTC.
Position N 01°55' E 102°22'.
Warning: this ship's position is 20 days out of date.

Length 294 m; draft 13.6 m.

Type: Ship. MMSI: 240265000.

Date/timePositionNaut miles runAvg speedWind from/ knotsBaromVisibWave heightAir tempDewpointWater temp
2015-Jan-05 21:22N 01°55' E 102°22'1417.4
2015-Jan-05 20:33N 01°49' E 102°35'1817.9
2015-Jan-05 19:33N 01°41' E 102°51'5315.8
2015-Jan-05 16:11N 01°12' E 103°36'5 8.2
2015-Jan-05 15:33N 01°13' E 103°41'6 6.0
2015-Jan-05 14:33N 01°16' E 103°46'0 0.0
2015-Jan-05 08:16N 01°16' E 103°46'0 0.0
2015-Jan-05 07:31N 01°16' E 103°46'0 0.1
2015-Jan-05 06:31N 01°16' E 103°46'0 0.0
2015-Jan-05 02:31N 01°16' E 103°46'0 0.0
2015-Jan-05 01:31N 01°16' E 103°46'0 0.0
2015-Jan-05 00:13N 01°16' E 103°46'0 0.0
2015-Jan-04 17:07N 01°16' E 103°46'0 0.1
2015-Jan-04 16:25N 01°16' E 103°46'0 0.0
2015-Jan-04 15:22N 01°16' E 103°46'0 0.1
2015-Jan-04 14:31N 01°16' E 103°46'0 0.1
2015-Jan-04 13:28N 01°16' E 103°46'0 0.0
2015-Jan-04 12:31N 01°16' E 103°46'0 0.0
2015-Jan-04 11:31N 01°16' E 103°46'0 0.1
2015-Jan-04 10:31N 01°16' E 103°46'0 0.1
2015-Jan-04 09:31N 01°16' E 103°46'0 0.1
2015-Jan-04 08:31N 01°16' E 103°46'0 0.0
2015-Jan-04 02:21N 01°16' E 103°46'0 0.0
2015-Jan-04 00:33N 01°16' E 103°46'0 0.0
2015-Jan-03 21:34N 01°16' E 103°46'2 2.1
2015-Jan-03 20:33N 01°14' E 103°47'7 6.9
2015-Jan-03 19:33N 01°13' E 103°54'5 5.5
2015-Jan-03 18:33N 01°15' E 103°59'1616.2
2015-Jan-03 17:32N 01°18' E 104°15'  
Track history (hours):
 
Tides and Currents Weather Stations Pressure Air Temp Water Temp Dewpoint Dewpoint Depression Visibility Wind Speed Wind Dir Waves Ship Positions

MSC Mandraki

Last reported at 2015-Jan-05 21:22 UTC. Time now 2015-Jan-25 22:26 UTC.
Position N 01°55' E 102°22'.
Warning: this ship's position is 20 days out of date.

Length 294 m; draft 13.6 m.

Type: Ship. MMSI: 240265000.

Date/timePositionNaut miles runAvg speedWind from/ knotsBaromVisibWave heightAir tempDewpointWater temp
2015-Jan-05 21:22N 01°55' E 102°22'1417.4
2015-Jan-05 20:33N 01°49' E 102°35'1817.9
2015-Jan-05 19:33N 01°41' E 102°51'5315.8
2015-Jan-05 16:11N 01°12' E 103°36'5 8.2
2015-Jan-05 15:33N 01°13' E 103°41'6 6.0
2015-Jan-05 14:33N 01°16' E 103°46'0 0.0
2015-Jan-05 08:16N 01°16' E 103°46'0 0.0
2015-Jan-05 07:31N 01°16' E 103°46'0 0.1
2015-Jan-05 06:31N 01°16' E 103°46'0 0.0
2015-Jan-05 02:31N 01°16' E 103°46'0 0.0
2015-Jan-05 01:31N 01°16' E 103°46'0 0.0
2015-Jan-05 00:13N 01°16' E 103°46'0 0.0
2015-Jan-04 17:07N 01°16' E 103°46'0 0.1
2015-Jan-04 16:25N 01°16' E 103°46'0 0.0
2015-Jan-04 15:22N 01°16' E 103°46'0 0.1
2015-Jan-04 14:31N 01°16' E 103°46'0 0.1
2015-Jan-04 13:28N 01°16' E 103°46'0 0.0
2015-Jan-04 12:31N 01°16' E 103°46'0 0.0
2015-Jan-04 11:31N 01°16' E 103°46'0 0.1
2015-Jan-04 10:31N 01°16' E 103°46'0 0.1
2015-Jan-04 09:31N 01°16' E 103°46'0 0.1
2015-Jan-04 08:31N 01°16' E 103°46'0 0.0
2015-Jan-04 02:21N 01°16' E 103°46'0 0.0
2015-Jan-04 00:33N 01°16' E 103°46'0 0.0
2015-Jan-03 21:34N 01°16' E 103°46'2 2.1
2015-Jan-03 20:33N 01°14' E 103°47'7 6.9
2015-Jan-03 19:33N 01°13' E 103°54'5 5.5
2015-Jan-03 18:33N 01°15' E 103°59'1616.2
2015-Jan-03 17:32N 01°18' E 104°15'  

Dump ship's entire track history